Home   Weather   Greece   Preveza   Past weeks
Flag for Greece

Past Weather in Preveza, Greece — Yesterday and Last 2 Weeks

Currently: 82 °F. Passing clouds. (Weather station: Aktion Airport, Greece). See more current weather

Past Weather in Preveza — Graph

°F

Preveza Temperature Yesterday

Maximum temperature yesterday: 100 °F (at 12:50 pm)
Minimum temperature yesterday: 81 °F (at 12:50 am)
Average temperature yesterday: 88 °F

High & Low Weather Summary for the Past Weeks

 TemperatureHumidityPressure
High104 °F (Jul 17, 12:50 pm)100% (Jul 13, 4:50 am)29.95 "Hg (Jul 13, 4:50 am)
Low68 °F (Jul 6, 5:50 am)22% (Jul 17, 12:20 pm)29.71 "Hg (Jul 20, 3:50 pm)
Average86 °F64%29.84 "Hg
* Reported Jul 5 11:50 pm — Jul 20 11:50 pm, Preveza. Weather by CustomWeather, © 2024

Note: Actual official high and low records may vary slightly from our data, if they occured in-between our weather recording intervals... More about our weather records

Preveza Weather History for the Previous 24 Hours

Scroll right to see more
 ConditionsComfort  
Time TempWeatherWind HumidityBarometerVisibility
11:50 pm
Sat, Jul 20
82 °FPassing clouds.6 mph89%29.74 "HgN/A
9:50 pm84 °FPassing clouds.7 mph84%29.74 "HgN/A
8:50 pm84 °FPassing clouds.10 mph84%29.71 "HgN/A
8:20 pm86 °FPassing clouds.12 mph79%29.71 "HgN/A
7:50 pm86 °FPassing clouds.13 mph79%29.71 "HgN/A
7:20 pm88 °FPassing clouds.17 mph70%29.71 "HgN/A
6:50 pm90 °FPassing clouds.14 mph67%29.71 "HgN/A
6:20 pm91 °FPassing clouds.17 mph63%29.71 "HgN/A
5:50 pm91 °FPassing clouds.16 mph67%29.71 "HgN/A
5:20 pm93 °FPassing clouds.16 mph63%29.71 "HgN/A
4:50 pm93 °FPassing clouds.16 mph67%29.71 "HgN/A
3:50 pm95 °FPassing clouds.17 mph50%29.71 "HgN/A
2:50 pm97 °FPassing clouds.16 mph37%29.74 "HgN/A
2:20 pm97 °FPassing clouds.14 mph34%29.74 "HgN/A
1:50 pm97 °FPassing clouds.14 mph44%29.74 "HgN/A
1:20 pm99 °FPassing clouds.7 mph35%29.77 "HgN/A
12:50 pm100 °FSunny.5 mph31%29.77 "Hg10 mi
12:20 pm99 °FSunny.5 mph33%29.77 "Hg10 mi
11:20 am95 °FSunny.7 mph36%29.77 "Hg10 mi
10:20 am91 °FSunny.9 mph46%29.77 "Hg10 mi
9:50 am90 °FSunny.9 mph49%29.77 "Hg10 mi
9:20 am86 °FSunny.12 mph55%29.77 "Hg10 mi
8:50 am86 °FSunny.9 mph52%29.77 "Hg10 mi
8:20 am86 °FSunny.12 mph52%29.77 "Hg10 mi
7:50 am84 °FSunny.9 mph62%29.77 "Hg10 mi
7:20 am82 °FSunny.10 mph58%29.77 "Hg10 mi
6:50 am82 °FSunny.8 mph62%29.77 "Hg10 mi
6:20 am81 °FClear.10 mph62%29.77 "Hg10 mi
5:50 am81 °FClear.9 mph66%29.77 "Hg10 mi
4:50 am81 °FClear.9 mph66%29.77 "Hg10 mi
3:50 am82 °FClear.6 mph62%29.77 "Hg10 mi
2:50 am82 °FClear.6 mph62%29.77 "Hg10 mi
1:50 am84 °FClear.7 mph62%29.80 "Hg10 mi
Weather by CustomWeather, © 2024

See weather overview